sensor_id;sensor_type;location;lat;lon;timestamp;pressure;altitude;pressure_sealevel;temperature;humidity
57250;BME280;43102;52.014;-0.680;2024-03-22T00:00:00;101070;;;11.35;67.58
57250;BME280;43102;52.014;-0.680;2024-03-22T00:01:00;101070;;;11.35;67.58
57250;BME280;43102;52.014;-0.680;2024-03-22T00:02:00;101070;;;11.35;67.58
57250;BME280;43102;52.014;-0.680;2024-03-22T00:03:00;101074;;;11.39;67.69
57250;BME280;43102;52.014;-0.680;2024-03-22T00:04:00;101074;;;11.39;67.69
57250;BME280;43102;52.014;-0.680;2024-03-22T00:05:00;101074;;;11.39;67.69
57250;BME280;43102;52.014;-0.680;2024-03-22T00:06:00;101074;;;11.39;67.69
57250;BME280;43102;52.014;-0.680;2024-03-22T00:07:00;101074;;;11.39;67.69
57250;BME280;43102;52.014;-0.680;2024-03-22T00:08:00;101060;;;11.29;67.79
57250;BME280;43102;52.014;-0.680;2024-03-22T00:09:00;101060;;;11.29;67.79
57250;BME280;43102;52.014;-0.680;2024-03-22T00:10:00;101060;;;11.29;67.79
57250;BME280;43102;52.014;-0.680;2024-03-22T00:11:00;101060;;;11.29;67.79
57250;BME280;43102;52.014;-0.680;2024-03-22T00:12:00;101060;;;11.29;67.79
57250;BME280;43102;52.014;-0.680;2024-03-22T00:13:00;101054;;;11.23;67.80
57250;BME280;43102;52.014;-0.680;2024-03-22T00:14:00;101054;;;11.23;67.80
57250;BME280;43102;52.014;-0.680;2024-03-22T00:15:00;101054;;;11.23;67.80
57250;BME280;43102;52.014;-0.680;2024-03-22T00:16:00;101054;;;11.23;67.80
57250;BME280;43102;52.014;-0.680;2024-03-22T00:17:00;101054;;;11.23;67.80
57250;BME280;43102;52.014;-0.680;2024-03-22T00:18:00;101044;;;11.22;67.99
57250;BME280;43102;52.014;-0.680;2024-03-22T00:19:01;101044;;;11.22;67.99
57250;BME280;43102;52.014;-0.680;2024-03-22T00:20:00;101044;;;11.22;67.99
57250;BME280;43102;52.014;-0.680;2024-03-22T00:21:00;101044;;;11.22;67.99
57250;BME280;43102;52.014;-0.680;2024-03-22T00:22:00;101044;;;11.22;67.99
57250;BME280;43102;52.014;-0.680;2024-03-22T00:23:00;101041;;;11.26;67.86
57250;BME280;43102;52.014;-0.680;2024-03-22T00:24:00;101041;;;11.26;67.86
57250;BME280;43102;52.014;-0.680;2024-03-22T00:25:00;101041;;;11.26;67.86
57250;BME280;43102;52.014;-0.680;2024-03-22T00:26:00;101041;;;11.26;67.86
57250;BME280;43102;52.014;-0.680;2024-03-22T00:27:00;101041;;;11.26;67.86
57250;BME280;43102;52.014;-0.680;2024-03-22T00:28:00;101035;;;11.15;67.96
57250;BME280;43102;52.014;-0.680;2024-03-22T00:29:00;101035;;;11.15;67.96
57250;BME280;43102;52.014;-0.680;2024-03-22T00:30:00;101035;;;11.15;67.96
57250;BME280;43102;52.014;-0.680;2024-03-22T00:31:00;101035;;;11.15;67.96
57250;BME280;43102;52.014;-0.680;2024-03-22T00:32:00;101035;;;11.15;67.96
57250;BME280;43102;52.014;-0.680;2024-03-22T00:33:00;101028;;;11.16;67.95
57250;BME280;43102;52.014;-0.680;2024-03-22T00:34:00;101028;;;11.16;67.95
57250;BME280;43102;52.014;-0.680;2024-03-22T00:35:00;101028;;;11.16;67.95
57250;BME280;43102;52.014;-0.680;2024-03-22T00:36:00;101028;;;11.16;67.95
57250;BME280;43102;52.014;-0.680;2024-03-22T00:37:00;101028;;;11.16;67.95
57250;BME280;43102;52.014;-0.680;2024-03-22T00:38:00;101029;;;11.08;68.20
57250;BME280;43102;52.014;-0.680;2024-03-22T00:39:00;101029;;;11.08;68.20
57250;BME280;43102;52.014;-0.680;2024-03-22T00:40:00;101029;;;11.08;68.20
57250;BME280;43102;52.014;-0.680;2024-03-22T00:41:00;101029;;;11.08;68.20
57250;BME280;43102;52.014;-0.680;2024-03-22T00:42:00;101029;;;11.08;68.20
57250;BME280;43102;52.014;-0.680;2024-03-22T00:43:00;101030;;;11.01;68.49
57250;BME280;43102;52.014;-0.680;2024-03-22T00:44:00;101030;;;11.01;68.49
57250;BME280;43102;52.014;-0.680;2024-03-22T00:45:00;101030;;;11.01;68.49
57250;BME280;43102;52.014;-0.680;2024-03-22T00:46:00;101030;;;11.01;68.49
57250;BME280;43102;52.014;-0.680;2024-03-22T00:47:00;101030;;;11.01;68.49
57250;BME280;43102;52.014;-0.680;2024-03-22T00:48:00;101013;;;10.98;68.72
57250;BME280;43102;52.014;-0.680;2024-03-22T00:49:00;101013;;;10.98;68.72
57250;BME280;43102;52.014;-0.680;2024-03-22T00:50:00;101013;;;10.98;68.72
57250;BME280;43102;52.014;-0.680;2024-03-22T00:51:00;101013;;;10.98;68.72
57250;BME280;43102;52.014;-0.680;2024-03-22T00:52:00;101013;;;10.98;68.72
57250;BME280;43102;52.014;-0.680;2024-03-22T00:53:00;101009;;;10.94;68.89
57250;BME280;43102;52.014;-0.680;2024-03-22T00:54:00;101009;;;10.94;68.89
57250;BME280;43102;52.014;-0.680;2024-03-22T00:55:00;101009;;;10.94;68.89
57250;BME280;43102;52.014;-0.680;2024-03-22T00:56:00;101009;;;10.94;68.89
57250;BME280;43102;52.014;-0.680;2024-03-22T00:57:00;101009;;;10.94;68.89
57250;BME280;43102;52.014;-0.680;2024-03-22T00:58:00;101005;;;10.95;68.92
57250;BME280;43102;52.014;-0.680;2024-03-22T00:59:00;101005;;;10.95;68.92
57250;BME280;43102;52.014;-0.680;2024-03-22T01:00:00;101005;;;10.95;68.92
57250;BME280;43102;52.014;-0.680;2024-03-22T01:01:00;101005;;;10.95;68.92
57250;BME280;43102;52.014;-0.680;2024-03-22T01:02:00;101005;;;10.95;68.92
57250;BME280;43102;52.014;-0.680;2024-03-22T01:03:00;100998;;;10.90;69.00
57250;BME280;43102;52.014;-0.680;2024-03-22T01:04:00;100998;;;10.90;69.00
57250;BME280;43102;52.014;-0.680;2024-03-22T01:05:00;100998;;;10.90;69.00
57250;BME280;43102;52.014;-0.680;2024-03-22T01:06:00;100998;;;10.90;69.00
57250;BME280;43102;52.014;-0.680;2024-03-22T01:07:00;100998;;;10.90;69.00
57250;BME280;43102;52.014;-0.680;2024-03-22T01:08:00;100996;;;10.79;69.53
57250;BME280;43102;52.014;-0.680;2024-03-22T01:09:00;100996;;;10.79;69.53
57250;BME280;43102;52.014;-0.680;2024-03-22T01:10:00;100996;;;10.79;69.53
57250;BME280;43102;52.014;-0.680;2024-03-22T01:11:00;100996;;;10.79;69.53
57250;BME280;43102;52.014;-0.680;2024-03-22T01:12:00;100996;;;10.79;69.53
57250;BME280;43102;52.014;-0.680;2024-03-22T01:13:00;100993;;;10.83;69.40
57250;BME280;43102;52.014;-0.680;2024-03-22T01:14:00;100993;;;10.83;69.40
57250;BME280;43102;52.014;-0.680;2024-03-22T01:15:00;100993;;;10.83;69.40
57250;BME280;43102;52.014;-0.680;2024-03-22T01:16:00;100993;;;10.83;69.40
57250;BME280;43102;52.014;-0.680;2024-03-22T01:17:00;100993;;;10.83;69.40
57250;BME280;43102;52.014;-0.680;2024-03-22T01:18:00;100985;;;10.82;69.45
57250;BME280;43102;52.014;-0.680;2024-03-22T01:19:00;100985;;;10.82;69.45
57250;BME280;43102;52.014;-0.680;2024-03-22T01:20:00;100985;;;10.82;69.45
57250;BME280;43102;52.014;-0.680;2024-03-22T01:21:00;100985;;;10.82;69.45
57250;BME280;43102;52.014;-0.680;2024-03-22T01:22:00;100985;;;10.82;69.45
57250;BME280;43102;52.014;-0.680;2024-03-22T01:23:00;100987;;;10.82;69.55
57250;BME280;43102;52.014;-0.680;2024-03-22T01:24:00;100987;;;10.82;69.55
57250;BME280;43102;52.014;-0.680;2024-03-22T01:25:00;100987;;;10.82;69.55
57250;BME280;43102;52.014;-0.680;2024-03-22T01:26:00;100987;;;10.82;69.55
57250;BME280;43102;52.014;-0.680;2024-03-22T01:27:00;100987;;;10.82;69.55
57250;BME280;43102;52.014;-0.680;2024-03-22T01:28:00;100980;;;10.80;69.57
57250;BME280;43102;52.014;-0.680;2024-03-22T01:29:00;100980;;;10.80;69.57
57250;BME280;43102;52.014;-0.680;2024-03-22T01:30:00;100980;;;10.80;69.57
57250;BME280;43102;52.014;-0.680;2024-03-22T01:31:00;100980;;;10.80;69.57
57250;BME280;43102;52.014;-0.680;2024-03-22T01:32:00;100980;;;10.80;69.57
57250;BME280;43102;52.014;-0.680;2024-03-22T01:33:00;100982;;;10.77;70.09
57250;BME280;43102;52.014;-0.680;2024-03-22T01:34:00;100982;;;10.77;70.09
57250;BME280;43102;52.014;-0.680;2024-03-22T01:35:00;100982;;;10.77;70.09
57250;BME280;43102;52.014;-0.680;2024-03-22T01:36:00;100982;;;10.77;70.09
57250;BME280;43102;52.014;-0.680;2024-03-22T01:37:00;100982;;;10.77;70.09
57250;BME280;43102;52.014;-0.680;2024-03-22T01:38:00;100977;;;10.75;70.42
57250;BME280;43102;52.014;-0.680;2024-03-22T01:39:00;100977;;;10.75;70.42
57250;BME280;43102;52.014;-0.680;2024-03-22T01:40:00;100977;;;10.75;70.42
57250;BME280;43102;52.014;-0.680;2024-03-22T01:41:00;100977;;;10.75;70.42
57250;BME280;43102;52.014;-0.680;2024-03-22T01:42:00;100977;;;10.75;70.42
57250;BME280;43102;52.014;-0.680;2024-03-22T01:43:00;100977;;;10.81;70.29
57250;BME280;43102;52.014;-0.680;2024-03-22T01:44:00;100977;;;10.81;70.29
57250;BME280;43102;52.014;-0.680;2024-03-22T01:45:00;100977;;;10.81;70.29
57250;BME280;43102;52.014;-0.680;2024-03-22T01:46:00;100977;;;10.81;70.29
57250;BME280;43102;52.014;-0.680;2024-03-22T01:47:00;100977;;;10.81;70.29
57250;BME280;43102;52.014;-0.680;2024-03-22T01:48:00;100972;;;10.75;70.67
57250;BME280;43102;52.014;-0.680;2024-03-22T01:49:00;100972;;;10.75;70.67
57250;BME280;43102;52.014;-0.680;2024-03-22T01:50:00;100972;;;10.75;70.67
57250;BME280;43102;52.014;-0.680;2024-03-22T01:51:00;100972;;;10.75;70.67
57250;BME280;43102;52.014;-0.680;2024-03-22T01:52:00;100972;;;10.75;70.67
57250;BME280;43102;52.014;-0.680;2024-03-22T01:53:00;100963;;;10.73;71.22
57250;BME280;43102;52.014;-0.680;2024-03-22T01:54:01;100963;;;10.73;71.22
57250;BME280;43102;52.014;-0.680;2024-03-22T01:55:00;100963;;;10.73;71.22
57250;BME280;43102;52.014;-0.680;2024-03-22T01:56:00;100963;;;10.73;71.22
57250;BME280;43102;52.014;-0.680;2024-03-22T01:57:00;100963;;;10.73;71.22
57250;BME280;43102;52.014;-0.680;2024-03-22T01:58:00;100969;;;10.82;71.18
57250;BME280;43102;52.014;-0.680;2024-03-22T01:59:00;100969;;;10.82;71.18
57250;BME280;43102;52.014;-0.680;2024-03-22T02:00:00;100969;;;10.82;71.18
57250;BME280;43102;52.014;-0.680;2024-03-22T02:01:00;100969;;;10.82;71.18
57250;BME280;43102;52.014;-0.680;2024-03-22T02:02:00;100969;;;10.82;71.18
57250;BME280;43102;52.014;-0.680;2024-03-22T02:03:00;100979;;;10.73;72.32
57250;BME280;43102;52.014;-0.680;2024-03-22T02:04:00;100979;;;10.73;72.32
57250;BME280;43102;52.014;-0.680;2024-03-22T02:05:11;100979;;;10.73;72.32
57250;BME280;43102;52.014;-0.680;2024-03-22T02:06:00;100979;;;10.73;72.32
57250;BME280;43102;52.014;-0.680;2024-03-22T02:07:00;100979;;;10.73;72.32
57250;BME280;43102;52.014;-0.680;2024-03-22T02:08:00;100992;;;10.90;72.13
57250;BME280;43102;52.014;-0.680;2024-03-22T02:09:00;100992;;;10.90;72.13
57250;BME280;43102;52.014;-0.680;2024-03-22T02:10:00;100992;;;10.90;72.13
57250;BME280;43102;52.014;-0.680;2024-03-22T02:11:00;100992;;;10.90;72.13
57250;BME280;43102;52.014;-0.680;2024-03-22T02:12:00;100992;;;10.90;72.13
57250;BME280;43102;52.014;-0.680;2024-03-22T02:13:00;100992;;;10.87;72.44
57250;BME280;43102;52.014;-0.680;2024-03-22T02:14:00;100992;;;10.87;72.44
57250;BME280;43102;52.014;-0.680;2024-03-22T02:15:00;100992;;;10.87;72.44
57250;BME280;43102;52.014;-0.680;2024-03-22T02:16:02;100992;;;10.87;72.44
57250;BME280;43102;52.014;-0.680;2024-03-22T02:17:00;100992;;;10.87;72.44
57250;BME280;43102;52.014;-0.680;2024-03-22T02:18:00;100983;;;10.93;72.55
57250;BME280;43102;52.014;-0.680;2024-03-22T02:19:00;100983;;;10.93;72.55
57250;BME280;43102;52.014;-0.680;2024-03-22T02:20:00;100983;;;10.93;72.55
57250;BME280;43102;52.014;-0.680;2024-03-22T02:21:00;100983;;;10.93;72.55
57250;BME280;43102;52.014;-0.680;2024-03-22T02:22:00;100983;;;10.93;72.55
57250;BME280;43102;52.014;-0.680;2024-03-22T02:23:00;100974;;;10.92;72.60
57250;BME280;43102;52.014;-0.680;2024-03-22T02:24:00;100974;;;10.92;72.60
57250;BME280;43102;52.014;-0.680;2024-03-22T02:25:00;100974;;;10.92;72.60
57250;BME280;43102;52.014;-0.680;2024-03-22T02:26:00;100974;;;10.92;72.60
57250;BME280;43102;52.014;-0.680;2024-03-22T02:27:00;100974;;;10.92;72.60
57250;BME280;43102;52.014;-0.680;2024-03-22T02:28:00;100964;;;10.91;72.83
57250;BME280;43102;52.014;-0.680;2024-03-22T02:29:00;100964;;;10.91;72.83
57250;BME280;43102;52.014;-0.680;2024-03-22T02:30:00;100964;;;10.91;72.83
57250;BME280;43102;52.014;-0.680;2024-03-22T02:31:00;100964;;;10.91;72.83
57250;BME280;43102;52.014;-0.680;2024-03-22T02:32:00;100964;;;10.91;72.83
57250;BME280;43102;52.014;-0.680;2024-03-22T02:33:00;100966;;;10.85;73.41
57250;BME280;43102;52.014;-0.680;2024-03-22T02:34:00;100966;;;10.85;73.41
57250;BME280;43102;52.014;-0.680;2024-03-22T02:35:00;100966;;;10.85;73.41
57250;BME280;43102;52.014;-0.680;2024-03-22T02:36:00;100966;;;10.85;73.41
57250;BME280;43102;52.014;-0.680;2024-03-22T02:37:00;100966;;;10.85;73.41
57250;BME280;43102;52.014;-0.680;2024-03-22T02:38:00;100971;;;10.90;73.68
57250;BME280;43102;52.014;-0.680;2024-03-22T02:39:00;100971;;;10.90;73.68
57250;BME280;43102;52.014;-0.680;2024-03-22T02:40:00;100971;;;10.90;73.68
57250;BME280;43102;52.014;-0.680;2024-03-22T02:41:00;100971;;;10.90;73.68
57250;BME280;43102;52.014;-0.680;2024-03-22T02:42:00;100971;;;10.90;73.68
57250;BME280;43102;52.014;-0.680;2024-03-22T02:43:00;100956;;;10.85;74.15
57250;BME280;43102;52.014;-0.680;2024-03-22T02:44:00;100956;;;10.85;74.15
57250;BME280;43102;52.014;-0.680;2024-03-22T02:45:00;100956;;;10.85;74.15
57250;BME280;43102;52.014;-0.680;2024-03-22T02:46:00;100956;;;10.85;74.15
57250;BME280;43102;52.014;-0.680;2024-03-22T02:47:00;100956;;;10.85;74.15
57250;BME280;43102;52.014;-0.680;2024-03-22T02:48:00;100943;;;10.88;74.10
57250;BME280;43102;52.014;-0.680;2024-03-22T02:49:00;100943;;;10.88;74.10
57250;BME280;43102;52.014;-0.680;2024-03-22T02:50:00;100943;;;10.88;74.10
57250;BME280;43102;52.014;-0.680;2024-03-22T02:51:00;100943;;;10.88;74.10
57250;BME280;43102;52.014;-0.680;2024-03-22T02:52:00;100943;;;10.88;74.10
57250;BME280;43102;52.014;-0.680;2024-03-22T02:53:00;100938;;;10.84;74.45
57250;BME280;43102;52.014;-0.680;2024-03-22T02:54:00;100938;;;10.84;74.45
57250;BME280;43102;52.014;-0.680;2024-03-22T02:55:00;100938;;;10.84;74.45
57250;BME280;43102;52.014;-0.680;2024-03-22T02:56:00;100938;;;10.84;74.45
57250;BME280;43102;52.014;-0.680;2024-03-22T02:57:00;100938;;;10.84;74.45
57250;BME280;43102;52.014;-0.680;2024-03-22T02:58:00;100934;;;10.91;74.09
57250;BME280;43102;52.014;-0.680;2024-03-22T02:59:00;100934;;;10.91;74.09
57250;BME280;43102;52.014;-0.680;2024-03-22T03:00:00;100934;;;10.91;74.09
57250;BME280;43102;52.014;-0.680;2024-03-22T03:01:00;100934;;;10.91;74.09
57250;BME280;43102;52.014;-0.680;2024-03-22T03:02:00;100934;;;10.91;74.09
57250;BME280;43102;52.014;-0.680;2024-03-22T03:03:00;100926;;;10.92;74.11
57250;BME280;43102;52.014;-0.680;2024-03-22T03:04:00;100926;;;10.92;74.11
57250;BME280;43102;52.014;-0.680;2024-03-22T03:05:00;100926;;;10.92;74.11
57250;BME280;43102;52.014;-0.680;2024-03-22T03:06:00;100926;;;10.92;74.11
57250;BME280;43102;52.014;-0.680;2024-03-22T03:07:00;100926;;;10.92;74.11
57250;BME280;43102;52.014;-0.680;2024-03-22T03:08:00;100915;;;10.92;74.26
57250;BME280;43102;52.014;-0.680;2024-03-22T03:09:00;100915;;;10.92;74.26
57250;BME280;43102;52.014;-0.680;2024-03-22T03:10:00;100915;;;10.92;74.26
57250;BME280;43102;52.014;-0.680;2024-03-22T03:11:00;100915;;;10.92;74.26
57250;BME280;43102;52.014;-0.680;2024-03-22T03:12:00;100915;;;10.92;74.26
57250;BME280;43102;52.014;-0.680;2024-03-22T03:13:00;100908;;;10.87;74.61
57250;BME280;43102;52.014;-0.680;2024-03-22T03:14:00;100908;;;10.87;74.61
57250;BME280;43102;52.014;-0.680;2024-03-22T03:15:00;100908;;;10.87;74.61
57250;BME280;43102;52.014;-0.680;2024-03-22T03:16:00;100908;;;10.87;74.61
57250;BME280;43102;52.014;-0.680;2024-03-22T03:17:00;100908;;;10.87;74.61
57250;BME280;43102;52.014;-0.680;2024-03-22T03:18:00;100895;;;10.91;74.33
57250;BME280;43102;52.014;-0.680;2024-03-22T03:19:00;100895;;;10.91;74.33
57250;BME280;43102;52.014;-0.680;2024-03-22T03:20:00;100895;;;10.91;74.33
57250;BME280;43102;52.014;-0.680;2024-03-22T03:21:00;100895;;;10.91;74.33
57250;BME280;43102;52.014;-0.680;2024-03-22T03:22:00;100895;;;10.91;74.33
57250;BME280;43102;52.014;-0.680;2024-03-22T03:23:00;100883;;;10.94;74.26
57250;BME280;43102;52.014;-0.680;2024-03-22T03:24:00;100883;;;10.94;74.26
57250;BME280;43102;52.014;-0.680;2024-03-22T03:25:00;100883;;;10.94;74.26
57250;BME280;43102;52.014;-0.680;2024-03-22T03:26:00;100883;;;10.94;74.26
57250;BME280;43102;52.014;-0.680;2024-03-22T03:27:00;100883;;;10.94;74.26
57250;BME280;43102;52.014;-0.680;2024-03-22T03:28:00;100879;;;10.96;74.29
57250;BME280;43102;52.014;-0.680;2024-03-22T03:29:00;100879;;;10.96;74.29
57250;BME280;43102;52.014;-0.680;2024-03-22T03:30:00;100879;;;10.96;74.29
57250;BME280;43102;52.014;-0.680;2024-03-22T03:31:00;100879;;;10.96;74.29
57250;BME280;43102;52.014;-0.680;2024-03-22T03:32:00;100879;;;10.96;74.29
57250;BME280;43102;52.014;-0.680;2024-03-22T03:33:00;100879;;;10.89;74.66
57250;BME280;43102;52.014;-0.680;2024-03-22T03:34:00;100879;;;10.89;74.66
57250;BME280;43102;52.014;-0.680;2024-03-22T03:35:00;100879;;;10.89;74.66
57250;BME280;43102;52.014;-0.680;2024-03-22T03:36:00;100879;;;10.89;74.66
57250;BME280;43102;52.014;-0.680;2024-03-22T03:37:00;100879;;;10.89;74.66
57250;BME280;43102;52.014;-0.680;2024-03-22T03:38:00;100882;;;10.97;74.45
57250;BME280;43102;52.014;-0.680;2024-03-22T03:39:00;100882;;;10.97;74.45
57250;BME280;43102;52.014;-0.680;2024-03-22T03:40:00;100882;;;10.97;74.45
57250;BME280;43102;52.014;-0.680;2024-03-22T03:41:00;100882;;;10.97;74.45
57250;BME280;43102;52.014;-0.680;2024-03-22T03:42:00;100882;;;10.97;74.45
57250;BME280;43102;52.014;-0.680;2024-03-22T03:43:00;100883;;;10.91;74.81
57250;BME280;43102;52.014;-0.680;2024-03-22T03:44:00;100883;;;10.91;74.81
57250;BME280;43102;52.014;-0.680;2024-03-22T03:45:00;100883;;;10.91;74.81
57250;BME280;43102;52.014;-0.680;2024-03-22T03:46:00;100883;;;10.91;74.81
57250;BME280;43102;52.014;-0.680;2024-03-22T03:47:01;100883;;;10.91;74.81
57250;BME280;43102;52.014;-0.680;2024-03-22T03:48:00;100882;;;10.93;74.79
57250;BME280;43102;52.014;-0.680;2024-03-22T03:49:00;100882;;;10.93;74.79
57250;BME280;43102;52.014;-0.680;2024-03-22T03:50:00;100882;;;10.93;74.79
57250;BME280;43102;52.014;-0.680;2024-03-22T03:51:00;100882;;;10.93;74.79
57250;BME280;43102;52.014;-0.680;2024-03-22T03:52:00;100882;;;10.93;74.79
57250;BME280;43102;52.014;-0.680;2024-03-22T03:53:00;100880;;;10.93;74.85
57250;BME280;43102;52.014;-0.680;2024-03-22T03:54:00;100880;;;10.93;74.85
57250;BME280;43102;52.014;-0.680;2024-03-22T03:55:00;100880;;;10.93;74.85
57250;BME280;43102;52.014;-0.680;2024-03-22T03:56:00;100880;;;10.93;74.85
57250;BME280;43102;52.014;-0.680;2024-03-22T03:57:00;100880;;;10.93;74.85
57250;BME280;43102;52.014;-0.680;2024-03-22T03:58:00;100871;;;10.98;74.66
57250;BME280;43102;52.014;-0.680;2024-03-22T03:59:00;100871;;;10.98;74.66
57250;BME280;43102;52.014;-0.680;2024-03-22T04:00:00;100871;;;10.98;74.66
57250;BME280;43102;52.014;-0.680;2024-03-22T04:01:04;100871;;;10.98;74.66
57250;BME280;43102;52.014;-0.680;2024-03-22T04:02:00;100871;;;10.98;74.66
57250;BME280;43102;52.014;-0.680;2024-03-22T04:03:00;100876;;;10.97;74.94
57250;BME280;43102;52.014;-0.680;2024-03-22T04:04:00;100876;;;10.97;74.94
57250;BME280;43102;52.014;-0.680;2024-03-22T04:05:00;100876;;;10.97;74.94
57250;BME280;43102;52.014;-0.680;2024-03-22T04:06:00;100876;;;10.97;74.94
57250;BME280;43102;52.014;-0.680;2024-03-22T04:07:00;100876;;;10.97;74.94
57250;BME280;43102;52.014;-0.680;2024-03-22T04:08:00;100881;;;10.95;75.39
57250;BME280;43102;52.014;-0.680;2024-03-22T04:09:00;100881;;;10.95;75.39
57250;BME280;43102;52.014;-0.680;2024-03-22T04:10:00;100881;;;10.95;75.39
57250;BME280;43102;52.014;-0.680;2024-03-22T04:11:00;100881;;;10.95;75.39
57250;BME280;43102;52.014;-0.680;2024-03-22T04:12:00;100881;;;10.95;75.39
57250;BME280;43102;52.014;-0.680;2024-03-22T04:13:00;100881;;;10.99;75.36
57250;BME280;43102;52.014;-0.680;2024-03-22T04:14:00;100881;;;10.99;75.36
57250;BME280;43102;52.014;-0.680;2024-03-22T04:15:00;100881;;;10.99;75.36
57250;BME280;43102;52.014;-0.680;2024-03-22T04:16:00;100881;;;10.99;75.36
57250;BME280;43102;52.014;-0.680;2024-03-22T04:17:00;100881;;;10.99;75.36
57250;BME280;43102;52.014;-0.680;2024-03-22T04:18:00;100878;;;10.95;75.52
57250;BME280;43102;52.014;-0.680;2024-03-22T04:19:00;100878;;;10.95;75.52
57250;BME280;43102;52.014;-0.680;2024-03-22T04:20:00;100878;;;10.95;75.52
57250;BME280;43102;52.014;-0.680;2024-03-22T04:21:00;100878;;;10.95;75.52
57250;BME280;43102;52.014;-0.680;2024-03-22T04:22:00;100878;;;10.95;75.52
57250;BME280;43102;52.014;-0.680;2024-03-22T04:23:00;100873;;;10.95;75.60
57250;BME280;43102;52.014;-0.680;2024-03-22T04:24:00;100873;;;10.95;75.60
57250;BME280;43102;52.014;-0.680;2024-03-22T04:25:00;100873;;;10.95;75.60
57250;BME280;43102;52.014;-0.680;2024-03-22T04:26:01;100873;;;10.95;75.60
57250;BME280;43102;52.014;-0.680;2024-03-22T04:27:00;100873;;;10.95;75.60
57250;BME280;43102;52.014;-0.680;2024-03-22T04:28:00;100868;;;10.99;75.41
57250;BME280;43102;52.014;-0.680;2024-03-22T04:29:00;100868;;;10.99;75.41
57250;BME280;43102;52.014;-0.680;2024-03-22T04:30:00;100868;;;10.99;75.41
57250;BME280;43102;52.014;-0.680;2024-03-22T04:31:00;100868;;;10.99;75.41
57250;BME280;43102;52.014;-0.680;2024-03-22T04:32:00;100868;;;10.99;75.41
57250;BME280;43102;52.014;-0.680;2024-03-22T04:33:00;100875;;;10.97;75.79
57250;BME280;43102;52.014;-0.680;2024-03-22T04:34:00;100875;;;10.97;75.79
57250;BME280;43102;52.014;-0.680;2024-03-22T04:35:00;100875;;;10.97;75.79
57250;BME280;43102;52.014;-0.680;2024-03-22T04:36:00;100875;;;10.97;75.79
57250;BME280;43102;52.014;-0.680;2024-03-22T04:37:00;100875;;;10.97;75.79
57250;BME280;43102;52.014;-0.680;2024-03-22T04:38:00;100879;;;10.96;75.95
57250;BME280;43102;52.014;-0.680;2024-03-22T04:39:00;100879;;;10.96;75.95
57250;BME280;43102;52.014;-0.680;2024-03-22T04:40:00;100879;;;10.96;75.95
57250;BME280;43102;52.014;-0.680;2024-03-22T04:41:00;100879;;;10.96;75.95
57250;BME280;43102;52.014;-0.680;2024-03-22T04:42:00;100879;;;10.96;75.95
57250;BME280;43102;52.014;-0.680;2024-03-22T04:43:00;100882;;;10.89;76.42
57250;BME280;43102;52.014;-0.680;2024-03-22T04:44:00;100882;;;10.89;76.42
57250;BME280;43102;52.014;-0.680;2024-03-22T04:45:00;100882;;;10.89;76.42
57250;BME280;43102;52.014;-0.680;2024-03-22T04:46:00;100882;;;10.89;76.42
57250;BME280;43102;52.014;-0.680;2024-03-22T04:47:00;100882;;;10.89;76.42
57250;BME280;43102;52.014;-0.680;2024-03-22T04:48:01;100882;;;10.91;76.71
57250;BME280;43102;52.014;-0.680;2024-03-22T04:49:00;100882;;;10.91;76.71
57250;BME280;43102;52.014;-0.680;2024-03-22T04:50:00;100882;;;10.91;76.71
57250;BME280;43102;52.014;-0.680;2024-03-22T04:51:00;100882;;;10.91;76.71
57250;BME280;43102;52.014;-0.680;2024-03-22T04:52:00;100882;;;10.91;76.71
57250;BME280;43102;52.014;-0.680;2024-03-22T04:53:00;100877;;;10.92;76.60
57250;BME280;43102;52.014;-0.680;2024-03-22T04:54:00;100877;;;10.92;76.60
57250;BME280;43102;52.014;-0.680;2024-03-22T04:55:00;100877;;;10.92;76.60
57250;BME280;43102;52.014;-0.680;2024-03-22T04:56:00;100877;;;10.92;76.60
57250;BME280;43102;52.014;-0.680;2024-03-22T04:57:00;100877;;;10.92;76.60
57250;BME280;43102;52.014;-0.680;2024-03-22T04:58:00;100879;;;10.90;76.77
57250;BME280;43102;52.014;-0.680;2024-03-22T04:59:00;100879;;;10.90;76.77
57250;BME280;43102;52.014;-0.680;2024-03-22T05:00:00;100879;;;10.90;76.77
57250;BME280;43102;52.014;-0.680;2024-03-22T05:01:00;100879;;;10.90;76.77
57250;BME280;43102;52.014;-0.680;2024-03-22T05:02:00;100879;;;10.90;76.77
57250;BME280;43102;52.014;-0.680;2024-03-22T05:03:00;100877;;;10.90;77.08
57250;BME280;43102;52.014;-0.680;2024-03-22T05:04:00;100877;;;10.90;77.08
57250;BME280;43102;52.014;-0.680;2024-03-22T05:05:00;100877;;;10.90;77.08
57250;BME280;43102;52.014;-0.680;2024-03-22T05:06:00;100877;;;10.90;77.08
57250;BME280;43102;52.014;-0.680;2024-03-22T05:07:00;100877;;;10.90;77.08
57250;BME280;43102;52.014;-0.680;2024-03-22T05:08:00;100878;;;10.89;77.55
57250;BME280;43102;52.014;-0.680;2024-03-22T05:09:00;100878;;;10.89;77.55
57250;BME280;43102;52.014;-0.680;2024-03-22T05:10:00;100878;;;10.89;77.55
57250;BME280;43102;52.014;-0.680;2024-03-22T05:11:00;100878;;;10.89;77.55
57250;BME280;43102;52.014;-0.680;2024-03-22T05:12:00;100878;;;10.89;77.55
57250;BME280;43102;52.014;-0.680;2024-03-22T05:13:00;100877;;;10.92;77.31
57250;BME280;43102;52.014;-0.680;2024-03-22T05:14:00;100877;;;10.92;77.31
57250;BME280;43102;52.014;-0.680;2024-03-22T05:15:00;100877;;;10.92;77.31
57250;BME280;43102;52.014;-0.680;2024-03-22T05:16:00;100877;;;10.92;77.31
57250;BME280;43102;52.014;-0.680;2024-03-22T05:17:00;100877;;;10.92;77.31
57250;BME280;43102;52.014;-0.680;2024-03-22T05:18:00;100871;;;10.94;77.35
57250;BME280;43102;52.014;-0.680;2024-03-22T05:19:00;100871;;;10.94;77.35
57250;BME280;43102;52.014;-0.680;2024-03-22T05:20:00;100871;;;10.94;77.35
57250;BME280;43102;52.014;-0.680;2024-03-22T05:21:00;100871;;;10.94;77.35